Terminal Aerodrome Forecast
Issued by NWS Binghamton, NY

Current Version | Previous Version | Text Only | Print | Product List | Glossary On
Versions: 1 2 3 4 5 6 7 8 9 10 11 12 13 14 15 16 17 18 19 20 21 22
000
FTUS41 KBGM 280800 AAA
TAFSYR
TAF AMD
KSYR 280835Z 2809/2906 27005KT P6SM SCT025 BKN035
     FM281200 27010KT 1SM -SN OVC012
     FM281700 26010KT P6SM -SHSN SCT025 BKN035
     FM290000 23005KT P6SM SCT040 OVC100=

USA.gov is the U.S. government's official web portal to all federal, state and local government web resources and services.